Time;durP1;ratioP1;P1;durP2;ratioP2;P2;SDS_P1;SDS_P2;PMS_P1;PMS_P2;Temp;Humidity;BMP_temperature;BMP_pressure;BME280_temperature;BME280_humidity;BME280_pressure;Samples;Min_cycle;Max_cycle;Signal;HPM_P1;HPM_P2
2024/03/30 00:01:10;;;;;;;;;;;;;;;;;;2194133;67;1656;-21
2024/03/30 00:03:41;;;;;;;;;;;;;;;;;;2195936;67;1244;-21
2024/03/30 00:06:11;;;;;;;;;;;;;;;;;;2193998;67;1590;-21
2024/03/30 00:08:41;;;;;;;;;;;;;;;;;;2195142;59;2364;-21
2024/03/30 00:11:11;;;;;;;;;;;;;;;;;;2194941;67;1216;-21
2024/03/30 00:13:41;;;;;;;;;;;;;;;;;;2196793;59;1375;-21
2024/03/30 00:16:12;;;;;;;;;;;;;;;;;;2194211;67;1567;-21
2024/03/30 00:18:45;;;;;;;;;;;;;;;;;;2197569;60;2341;-21
2024/03/30 00:21:15;;;;;;;;;;;;;;;;;;2193396;67;1649;-21
2024/03/30 00:23:46;;;;;;;;;;;;;;;;;;2195638;59;1477;-21
2024/03/30 00:26:16;;;;;;;;;;;;;;;;;;2193964;67;1580;-21
2024/03/30 00:28:46;;;;;;;;;;;;;;;;;;2195665;67;1256;-21
2024/03/30 00:31:17;;;;;;;;;;;;;;;;;;2194205;59;2257;-21
2024/03/30 00:33:47;;;;;;;;;;;;;;;;;;2195640;59;1662;-21
2024/03/30 00:36:18;;;;;;;;;;;;;;;;;;2194225;67;1288;-21
2024/03/30 00:38:48;;;;;;;;;;;;;;;;;;2196567;59;1939;-21
2024/03/30 00:41:18;;;;;;;;;;;;;;;;;;2193717;59;2364;-21
2024/03/30 00:43:49;;;;;;;;;;;;;;;;;;2195498;67;1286;-21
2024/03/30 00:46:19;;;;;;;;;;;;;;;;;;2194342;67;1499;-21
2024/03/30 00:48:49;;;;;;;;;;;;;;;;;;2196218;67;1760;-21
2024/03/30 00:51:19;;;;;;;;;;;;;;;;;;2194427;60;1459;-21
2024/03/30 00:53:49;;;;;;;;;;;;;;;;;;2195899;67;2436;-21
2024/03/30 00:56:20;;;;;;;;;;;;;;;;;;2194400;67;1506;-21
2024/03/30 00:58:50;;;;;;;;;;;;;;;;;;2195632;67;1942;-21
2024/03/30 01:01:21;;;;;;;;;;;;;;;;;;2194309;67;1547;-21
2024/03/30 01:03:51;;;;;;;;;;;;;;;;;;2195444;59;2496;-21
2024/03/30 01:06:21;;;;;;;;;;;;;;;;;;2192533;67;1673;-21
2024/03/30 01:08:51;;;;;;;;;;;;;;;;;;2197561;67;1443;-21
2024/03/30 01:11:22;;;;;;;;;;;;;;;;;;2196612;67;1517;-21
2024/03/30 01:13:52;;;;;;;;;;;;;;;;;;2197953;59;2169;-21
2024/03/30 01:16:23;;;;;;;;;;;;;;;;;;2194837;67;1652;-21
2024/03/30 01:18:53;;;;;;;;;;;;;;;;;;2195970;67;1947;-21
2024/03/30 01:21:23;;;;;;;;;;;;;;;;;;2193480;67;2207;-21
2024/03/30 01:23:57;;;;;;;;;;;;;;;;;;2195673;59;1382;-21
2024/03/30 01:26:28;;;;;;;;;;;;;;;;;;2193819;59;2178;-21
2024/03/30 01:29:01;;;;;;;;;;;;;;;;;;2195268;67;1713;-21
2024/03/30 01:31:31;;;;;;;;;;;;;;;;;;2194577;67;1646;-21
2024/03/30 01:34:02;;;;;;;;;;;;;;;;;;2195463;59;1888;-21
2024/03/30 01:36:32;;;;;;;;;;;;;;;;;;2194799;59;2532;-21
2024/03/30 01:39:03;;;;;;;;;;;;;;;;;;2195616;59;1952;-21
2024/03/30 01:41:36;;;;;;;;;;;;;;;;;;2193751;59;1620;-21
2024/03/30 01:44:07;;;;;;;;;;;;;;;;;;2196747;67;1593;-21
2024/03/30 01:46:38;;;;;;;;;;;;;;;;;;2195303;59;1505;-21
2024/03/30 01:49:10;;;;;;;;;;;;;;;;;;2196631;59;2481;-21
2024/03/30 01:51:40;;;;;;;;;;;;;;;;;;2195324;59;1354;-21
2024/03/30 01:54:11;;;;;;;;;;;;;;;;;;2196267;67;1664;-21
2024/03/30 01:56:42;;;;;;;;;;;;;;;;;;2193318;67;1947;-21
2024/03/30 01:59:13;;;;;;;;;;;;;;;;;;2196531;59;2780;-21
2024/03/30 02:01:47;;;;;;;;;;;;;;;;;;2196689;59;1417;-21
2024/03/30 02:04:17;;;;;;;;;;;;;;;;;;2195428;67;1269;-21
2024/03/30 02:06:48;;;;;;;;;;;;;;;;;;2197181;67;1444;-21
2024/03/30 02:09:18;;;;;;;;;;;;;;;;;;2193223;59;2257;-21
2024/03/30 02:11:48;;;;;;;;;;;;;;;;;;2196667;67;1939;-22
2024/03/30 02:14:18;;;;;;;;;;;;;;;;;;2196623;59;1539;-21
2024/03/30 02:16:49;;;;;;;;;;;;;;;;;;2197322;67;1386;-36
2024/03/30 02:19:19;;;;;;;;;;;;;;;;;;2193357;59;1969;-21
2024/03/30 02:21:50;;;;;;;;;;;;;;;;;;2196210;59;2715;-21
2024/03/30 02:24:20;;;;;;;;;;;;;;;;;;2196006;59;1338;-21
2024/03/30 02:26:50;;;;;;;;;;;;;;;;;;2196840;67;1204;-21
2024/03/30 02:29:23;;;;;;;;;;;;;;;;;;2196593;67;1861;-21
2024/03/30 02:31:59;;;;;;;;;;;;;;;;;;2196596;59;2314;-21
2024/03/30 02:34:29;;;;;;;;;;;;;;;;;;2196254;59;1704;-21
2024/03/30 02:36:59;;;;;;;;;;;;;;;;;;2196142;59;1409;-21
2024/03/30 02:39:30;;;;;;;;;;;;;;;;;;2194942;59;1994;-21
2024/03/30 02:42:00;;;;;;;;;;;;;;;;;;2196540;59;2140;-21
2024/03/30 02:44:30;;;;;;;;;;;;;;;;;;2194780;59;1450;-21
2024/03/30 02:47:00;;;;;;;;;;;;;;;;;;2196873;67;1372;-21
2024/03/30 02:49:31;;;;;;;;;;;;;;;;;;2196247;67;1469;-21
2024/03/30 02:52:01;;;;;;;;;;;;;;;;;;2196714;59;1407;-21
2024/03/30 02:54:31;;;;;;;;;;;;;;;;;;2194531;67;2367;-21
2024/03/30 02:57:01;;;;;;;;;;;;;;;;;;2193716;67;1408;-21
2024/03/30 02:59:31;;;;;;;;;;;;;;;;;;2194193;67;1941;-21
2024/03/30 03:02:02;;;;;;;;;;;;;;;;;;2195606;67;1873;-21
2024/03/30 03:04:32;;;;;;;;;;;;;;;;;;2194318;59;2507;-21
2024/03/30 03:07:03;;;;;;;;;;;;;;;;;;2195788;67;1438;-21
2024/03/30 03:09:33;;;;;;;;;;;;;;;;;;2194943;67;1351;-21
2024/03/30 03:12:03;;;;;;;;;;;;;;;;;;2195216;67;1533;-21
2024/03/30 03:14:35;;;;;;;;;;;;;;;;;;2195648;59;2239;-21
2024/03/30 03:17:06;;;;;;;;;;;;;;;;;;2194994;59;2705;-21
2024/03/30 03:19:36;;;;;;;;;;;;;;;;;;2191577;67;1944;-21
2024/03/30 03:22:07;;;;;;;;;;;;;;;;;;2194964;67;1663;-21
2024/03/30 03:24:38;;;;;;;;;;;;;;;;;;2195065;59;1519;-21
2024/03/30 03:27:08;;;;;;;;;;;;;;;;;;2194484;59;2560;-21
2024/03/30 03:29:38;;;;;;;;;;;;;;;;;;2195793;67;1492;-21
2024/03/30 03:32:08;;;;;;;;;;;;;;;;;;2199482;53;3735;-20
2024/03/30 03:34:39;;;;;;;;;;;;;;;;;;2207394;59;2125;-20
2024/03/30 03:37:09;;;;;;;;;;;;;;;;;;2209208;59;1989;-20
2024/03/30 03:39:39;;;;;;;;;;;;;;;;;;2208358;59;1932;-20
2024/03/30 03:42:09;;;;;;;;;;;;;;;;;;2212858;58;1766;-20
2024/03/30 03:44:40;;;;;;;;;;;;;;;;;;2211785;59;1829;-17
2024/03/30 03:47:10;;;;;;;;;;;;;;;;;;2208732;67;2000;-18
2024/03/30 03:49:40;;;;;;;;;;;;;;;;;;2208546;59;2247;-18
2024/03/30 03:52:11;;;;;;;;;;;;;;;;;;2209266;67;1836;-18
2024/03/30 03:54:41;;;;;;;;;;;;;;;;;;2208263;67;2462;-18
2024/03/30 03:57:14;;;;;;;;;;;;;;;;;;2207524;67;2703;-18
2024/03/30 03:59:44;;;;;;;;;;;;;;;;;;2209336;59;2725;-18
2024/03/30 04:02:15;;;;;;;;;;;;;;;;;;2211747;66;1815;-18
2024/03/30 04:04:45;;;;;;;;;;;;;;;;;;2208605;59;2569;-20
2024/03/30 04:07:16;;;;;;;;;;;;;;;;;;2209672;59;2012;-20
2024/03/30 04:09:46;;;;;;;;;;;;;;;;;;2208555;59;2620;-20
2024/03/30 04:12:16;;;;;;;;;;;;;;;;;;2209479;67;1636;-20
2024/03/30 04:14:47;;;;;;;;;;;;;;;;;;2208787;59;1685;-20
2024/03/30 04:17:17;;;;;;;;;;;;;;;;;;2209662;67;1838;-20
2024/03/30 04:19:47;;;;;;;;;;;;;;;;;;2208844;59;2004;-20
2024/03/30 04:22:18;;;;;;;;;;;;;;;;;;2211550;59;2196;-20
2024/03/30 04:24:48;;;;;;;;;;;;;;;;;;2209684;59;1408;-20
2024/03/30 04:27:18;;;;;;;;;;;;;;;;;;2209062;67;1224;-20
2024/03/30 04:29:49;;;;;;;;;;;;;;;;;;2209851;67;1804;-20
2024/03/30 04:32:19;;;;;;;;;;;;;;;;;;2209300;59;2313;-20
2024/03/30 04:34:49;;;;;;;;;;;;;;;;;;2208340;59;1662;-20
2024/03/30 04:37:20;;;;;;;;;;;;;;;;;;2209533;59;1639;-19
2024/03/30 04:39:50;;;;;;;;;;;;;;;;;;2209011;59;1940;-20
2024/03/30 04:42:20;;;;;;;;;;;;;;;;;;2210123;59;1500;-20
2024/03/30 04:44:50;;;;;;;;;;;;;;;;;;2208582;59;2519;-20
2024/03/30 04:47:21;;;;;;;;;;;;;;;;;;2209825;67;1340;-20
2024/03/30 04:49:51;;;;;;;;;;;;;;;;;;2209948;67;1613;-21
2024/03/30 04:52:21;;;;;;;;;;;;;;;;;;2211898;66;1800;-20
2024/03/30 04:54:52;;;;;;;;;;;;;;;;;;2209533;59;2233;-20
2024/03/30 04:57:22;;;;;;;;;;;;;;;;;;2211914;66;1447;-20
2024/03/30 04:59:53;;;;;;;;;;;;;;;;;;2210454;58;1908;-20
2024/03/30 05:02:23;;;;;;;;;;;;;;;;;;2211368;66;1699;-20
2024/03/30 05:04:53;;;;;;;;;;;;;;;;;;2212049;66;1483;-20
2024/03/30 05:07:24;;;;;;;;;;;;;;;;;;2208236;59;2216;-20
2024/03/30 05:09:54;;;;;;;;;;;;;;;;;;2208644;66;1272;-20
2024/03/30 05:12:25;;;;;;;;;;;;;;;;;;2211421;66;1778;-20
2024/03/30 05:14:55;;;;;;;;;;;;;;;;;;2206549;59;1360;-20
2024/03/30 05:17:25;;;;;;;;;;;;;;;;;;2210323;66;2345;-20
2024/03/30 05:22:45;;;;;;;;;;;;;;;;;;2207882;59;1538;-20
2024/03/30 05:25:15;;;;;;;;;;;;;;;;;;2209323;67;1362;-20
2024/03/30 05:27:45;;;;;;;;;;;;;;;;;;2207872;59;2060;-20
2024/03/30 05:30:18;;;;;;;;;;;;;;;;;;2208967;67;1630;-20
2024/03/30 05:32:49;;;;;;;;;;;;;;;;;;2207967;67;1325;-20
2024/03/30 05:35:19;;;;;;;;;;;;;;;;;;2209265;59;1695;-20
2024/03/30 05:37:50;;;;;;;;;;;;;;;;;;2209207;59;2024;-20
2024/03/30 05:40:20;;;;;;;;;;;;;;;;;;2210670;59;2003;-20
2024/03/30 05:42:51;;;;;;;;;;;;;;;;;;2211153;59;1753;-20
2024/03/30 05:45:21;;;;;;;;;;;;;;;;;;2209274;59;1426;-20
2024/03/30 05:47:52;;;;;;;;;;;;;;;;;;2208549;67;1416;-20
2024/03/30 05:50:23;;;;;;;;;;;;;;;;;;2212380;66;1680;-20
2024/03/30 05:52:53;;;;;;;;;;;;;;;;;;2208338;67;1590;-20
2024/03/30 05:55:23;;;;;;;;;;;;;;;;;;2209371;67;1555;-20
2024/03/30 05:57:54;;;;;;;;;;;;;;;;;;2207769;67;1618;-20
2024/03/30 06:00:25;;;;;;;;;;;;;;;;;;2209718;59;1934;-20
2024/03/30 06:02:55;;;;;;;;;;;;;;;;;;2208540;67;1169;-20
2024/03/30 06:05:26;;;;;;;;;;;;;;;;;;2208819;67;1731;-20
2024/03/30 06:07:56;;;;;;;;;;;;;;;;;;2208611;67;1543;-20
2024/03/30 06:10:26;;;;;;;;;;;;;;;;;;2209543;59;2255;-20
2024/03/30 06:12:57;;;;;;;;;;;;;;;;;;2210896;59;1467;-20
2024/03/30 06:15:27;;;;;;;;;;;;;;;;;;2209523;59;1471;-20
2024/03/30 06:17:58;;;;;;;;;;;;;;;;;;2209578;67;1426;-20
2024/03/30 06:20:28;;;;;;;;;;;;;;;;;;2209351;58;2390;-20
2024/03/30 06:22:58;;;;;;;;;;;;;;;;;;2209281;59;1541;-20
2024/03/30 06:25:28;;;;;;;;;;;;;;;;;;2209125;67;2337;-20
2024/03/30 06:27:59;;;;;;;;;;;;;;;;;;2209595;59;1565;-20
2024/03/30 06:30:29;;;;;;;;;;;;;;;;;;2210345;59;1432;-20
2024/03/30 06:32:59;;;;;;;;;;;;;;;;;;2209565;59;1588;-20
2024/03/30 06:35:32;;;;;;;;;;;;;;;;;;2208583;59;1914;-20
2024/03/30 06:38:03;;;;;;;;;;;;;;;;;;2211611;59;1496;-20
2024/03/30 06:43:40;;;;;;;;;;;;;;;;;;2212478;66;1636;-20
2024/03/30 06:46:11;;;;;;;;;;;;;;;;;;2212530;66;1753;-20
2024/03/30 06:48:41;;;;;;;;;;;;;;;;;;2209576;67;1456;-20
2024/03/30 06:51:12;;;;;;;;;;;;;;;;;;2209896;67;1642;-20
2024/03/30 06:53:42;;;;;;;;;;;;;;;;;;2208719;59;1461;-20
2024/03/30 06:56:13;;;;;;;;;;;;;;;;;;2209642;67;1549;-20
2024/03/30 06:58:43;;;;;;;;;;;;;;;;;;2208126;67;1995;-20
2024/03/30 07:01:13;;;;;;;;;;;;;;;;;;2211607;66;1677;-20
2024/03/30 07:03:44;;;;;;;;;;;;;;;;;;2207621;59;2742;-20
2024/03/30 07:06:15;;;;;;;;;;;;;;;;;;2207637;59;2937;-20
2024/03/30 07:08:45;;;;;;;;;;;;;;;;;;2208037;59;3611;-20
2024/03/30 07:11:15;;;;;;;;;;;;;;;;;;2209110;59;2420;-20
2024/03/30 07:13:46;;;;;;;;;;;;;;;;;;2206155;59;3739;-20
2024/03/30 07:16:16;;;;;;;;;;;;;;;;;;2207587;59;2383;-20
2024/03/30 07:18:46;;;;;;;;;;;;;;;;;;2209302;66;2367;-20
2024/03/30 07:21:17;;;;;;;;;;;;;;;;;;2207749;59;3815;-20
2024/03/30 07:23:47;;;;;;;;;;;;;;;;;;2206021;59;2920;-20
2024/03/30 07:26:17;;;;;;;;;;;;;;;;;;2207809;59;2846;-20
2024/03/30 07:28:47;;;;;;;;;;;;;;;;;;2207465;59;2340;-20
2024/03/30 07:31:18;;;;;;;;;;;;;;;;;;2210625;66;2865;-20
2024/03/30 07:33:48;;;;;;;;;;;;;;;;;;2208918;59;1784;-20
2024/03/30 07:36:19;;;;;;;;;;;;;;;;;;2210231;67;1501;-20
2024/03/30 07:38:49;;;;;;;;;;;;;;;;;;2207434;59;1937;-20
2024/03/30 07:41:19;;;;;;;;;;;;;;;;;;2208865;59;2394;-20
2024/03/30 07:43:50;;;;;;;;;;;;;;;;;;2206964;59;2195;-20
2024/03/30 07:46:20;;;;;;;;;;;;;;;;;;2209820;58;2740;-20
2024/03/30 07:48:50;;;;;;;;;;;;;;;;;;2206179;59;2488;-20
2024/03/30 07:51:21;;;;;;;;;;;;;;;;;;2208384;59;2725;-20
2024/03/30 07:53:51;;;;;;;;;;;;;;;;;;2206661;67;2816;-20
2024/03/30 07:56:23;;;;;;;;;;;;;;;;;;2207632;59;2746;-20
2024/03/30 07:58:54;;;;;;;;;;;;;;;;;;2205315;59;2822;-20
2024/03/30 08:01:27;;;;;;;;;;;;;;;;;;2207342;59;2522;-20
2024/03/30 08:03:57;;;;;;;;;;;;;;;;;;2205374;59;2714;-20
2024/03/30 08:06:27;;;;;;;;;;;;;;;;;;2207952;67;2253;-20
2024/03/30 08:08:57;;;;;;;;;;;;;;;;;;2207889;59;2559;-20
2024/03/30 08:11:28;;;;;;;;;;;;;;;;;;2209416;59;2410;-21
2024/03/30 08:13:58;;;;;;;;;;;;;;;;;;2210153;66;2415;-20
2024/03/30 08:16:28;;;;;;;;;;;;;;;;;;2208750;59;2328;-20
2024/03/30 08:19:02;;;;;;;;;;;;;;;;;;2206512;59;2988;-20
2024/03/30 08:21:32;;;;;;;;;;;;;;;;;;2208429;59;2257;-18
2024/03/30 08:24:03;;;;;;;;;;;;;;;;;;2208856;58;3794;-18
2024/03/30 08:26:33;;;;;;;;;;;;;;;;;;2207248;59;2664;-18
2024/03/30 08:29:03;;;;;;;;;;;;;;;;;;2205548;59;3693;-18
2024/03/30 08:31:34;;;;;;;;;;;;;;;;;;2209202;58;2705;-18
2024/03/30 08:34:04;;;;;;;;;;;;;;;;;;2206415;59;2641;-18
2024/03/30 08:36:34;;;;;;;;;;;;;;;;;;2206401;59;2902;-17
2024/03/30 08:39:05;;;;;;;;;;;;;;;;;;2207357;59;2046;-18
2024/03/30 08:41:35;;;;;;;;;;;;;;;;;;2207918;59;2423;-18
2024/03/30 08:44:05;;;;;;;;;;;;;;;;;;2206777;67;2304;-18
2024/03/30 08:46:36;;;;;;;;;;;;;;;;;;2208750;59;1732;-18
2024/03/30 08:49:07;;;;;;;;;;;;;;;;;;2207313;66;1590;-18
2024/03/30 08:51:38;;;;;;;;;;;;;;;;;;2210415;66;1935;-20
2024/03/30 08:54:08;;;;;;;;;;;;;;;;;;2207013;67;1984;-20
2024/03/30 08:56:39;;;;;;;;;;;;;;;;;;2207210;67;1786;-20
2024/03/30 08:59:09;;;;;;;;;;;;;;;;;;2207067;59;1929;-20
2024/03/30 09:01:40;;;;;;;;;;;;;;;;;;2207686;67;2284;-21
2024/03/30 09:04:10;;;;;;;;;;;;;;;;;;2207018;59;2344;-20
2024/03/30 09:06:41;;;;;;;;;;;;;;;;;;2206429;67;2253;-20
2024/03/30 09:09:11;;;;;;;;;;;;;;;;;;2206747;67;2447;-20
2024/03/30 09:11:42;;;;;;;;;;;;;;;;;;2209366;59;1660;-20
2024/03/30 09:14:13;;;;;;;;;;;;;;;;;;2209736;58;2119;-20
2024/03/30 09:16:43;;;;;;;;;;;;;;;;;;2207314;58;2091;-20
2024/03/30 09:19:14;;;;;;;;;;;;;;;;;;2209220;59;1987;-20
2024/03/30 09:21:44;;;;;;;;;;;;;;;;;;2206941;59;2365;-20
2024/03/30 09:24:15;;;;;;;;;;;;;;;;;;2208318;58;2480;-20
2024/03/30 09:26:45;;;;;;;;;;;;;;;;;;2207178;59;2324;-20
2024/03/30 09:29:15;;;;;;;;;;;;;;;;;;2209836;59;1603;-20
2024/03/30 09:31:45;;;;;;;;;;;;;;;;;;2206599;59;2373;-20
2024/03/30 09:34:16;;;;;;;;;;;;;;;;;;2209849;59;1647;-20
2024/03/30 09:36:46;;;;;;;;;;;;;;;;;;2206916;58;2258;-20
2024/03/30 09:39:19;;;;;;;;;;;;;;;;;;2211121;58;2323;-20
2024/03/30 09:41:51;;;;;;;;;;;;;;;;;;2207746;59;2675;-20
2024/03/30 09:44:21;;;;;;;;;;;;;;;;;;2208093;59;1492;-20
2024/03/30 09:46:52;;;;;;;;;;;;;;;;;;2207315;59;2271;-20
2024/03/30 09:49:23;;;;;;;;;;;;;;;;;;2209168;67;1470;-20
2024/03/30 09:51:55;;;;;;;;;;;;;;;;;;2207952;67;2777;-20
2024/03/30 09:54:25;;;;;;;;;;;;;;;;;;2208244;59;2359;-20
2024/03/30 09:56:56;;;;;;;;;;;;;;;;;;2207935;59;2366;-20
2024/03/30 09:59:27;;;;;;;;;;;;;;;;;;2208700;59;2896;-20
2024/03/30 10:01:57;;;;;;;;;;;;;;;;;;2209897;66;2297;-20
2024/03/30 10:04:27;;;;;;;;;;;;;;;;;;2209739;67;1491;-20
2024/03/30 10:06:59;;;;;;;;;;;;;;;;;;2209267;67;1493;-20
2024/03/30 10:09:30;;;;;;;;;;;;;;;;;;2211967;58;2364;-20
2024/03/30 10:12:04;;;;;;;;;;;;;;;;;;2208298;67;2396;-20
2024/03/30 10:14:41;;;;;;;;;;;;;;;;;;2208070;59;2369;-20
2024/03/30 10:17:12;;;;;;;;;;;;;;;;;;2203162;59;2538;-20
2024/03/30 10:19:42;;;;;;;;;;;;;;;;;;2209217;59;2748;-20
2024/03/30 10:22:13;;;;;;;;;;;;;;;;;;2208567;59;2695;-17
2024/03/30 10:24:44;;;;;;;;;;;;;;;;;;2209669;59;2350;-17
2024/03/30 10:27:14;;;;;;;;;;;;;;;;;;2210548;66;1871;-17
2024/03/30 10:29:44;;;;;;;;;;;;;;;;;;2209341;59;1353;-17
2024/03/30 10:32:15;;;;;;;;;;;;;;;;;;2209051;59;1761;-18
2024/03/30 10:34:45;;;;;;;;;;;;;;;;;;2211338;59;1671;-18
2024/03/30 10:37:16;;;;;;;;;;;;;;;;;;2211531;59;1749;-17
2024/03/30 10:39:46;;;;;;;;;;;;;;;;;;2207820;59;2054;-18
2024/03/30 10:42:17;;;;;;;;;;;;;;;;;;2210200;59;1686;-17
2024/03/30 10:44:55;;;;;;;;;;;;;;;;;;2210750;66;1900;-17
2024/03/30 10:47:27;;;;;;;;;;;;;;;;;;2212047;66;1279;-17
2024/03/30 10:49:57;;;;;;;;;;;;;;;;;;2208022;67;1902;-18
2024/03/30 10:52:28;;;;;;;;;;;;;;;;;;2209723;67;1238;-18
2024/03/30 10:54:58;;;;;;;;;;;;;;;;;;2206958;59;2196;-18
2024/03/30 10:57:28;;;;;;;;;;;;;;;;;;2208765;59;1721;-17
2024/03/30 11:00:03;;;;;;;;;;;;;;;;;;2207760;59;2388;-18
2024/03/30 11:02:34;;;;;;;;;;;;;;;;;;2210023;67;1553;-18
2024/03/30 11:05:05;;;;;;;;;;;;;;;;;;2208500;67;2110;-18
2024/03/30 11:07:38;;;;;;;;;;;;;;;;;;2209820;67;1471;-18
2024/03/30 11:10:09;;;;;;;;;;;;;;;;;;2209789;66;1375;-18
2024/03/30 11:12:40;;;;;;;;;;;;;;;;;;2208519;59;1869;-17
2024/03/30 11:15:11;;;;;;;;;;;;;;;;;;2207260;59;1569;-18
2024/03/30 11:17:41;;;;;;;;;;;;;;;;;;2209033;59;2488;-18
2024/03/30 11:20:13;;;;;;;;;;;;;;;;;;2204908;59;2777;-18
2024/03/30 11:22:52;;;;;;;;;;;;;;;;;;2207839;59;2890;-18
2024/03/30 11:25:27;;;;;;;;;;;;;;;;;;2208735;59;2725;-18
2024/03/30 11:28:03;;;;;;;;;;;;;;;;;;2207505;67;2453;-18
2024/03/30 11:30:52;;;;;;;;;;;;;;;;;;2208034;59;2432;-18
2024/03/30 11:33:44;;;;;;;;;;;;;;;;;;2208180;59;2776;-18
2024/03/30 11:36:26;;;;;;;;;;;;;;;;;;2207848;59;2749;-18
2024/03/30 11:39:03;;;;;;;;;;;;;;;;;;2207656;59;2630;-18
2024/03/30 11:41:34;;;;;;;;;;;;;;;;;;2209079;59;2496;-18
2024/03/30 11:44:11;;;;;;;;;;;;;;;;;;2208143;59;2794;-17
2024/03/30 11:46:42;;;;;;;;;;;;;;;;;;2209465;59;2338;-18
2024/03/30 11:49:14;;;;;;;;;;;;;;;;;;2207701;59;2482;-18
2024/03/30 11:51:44;;;;;;;;;;;;;;;;;;2210635;58;2532;-17
2024/03/30 11:54:20;;;;;;;;;;;;;;;;;;2208468;59;3783;-18
2024/03/30 11:57:09;;;;;;;;;;;;;;;;;;2210240;59;2450;-18
2024/03/30 11:59:48;;;;;;;;;;;;;;;;;;2209897;59;2789;-18
2024/03/30 12:02:18;;;;;;;;;;;;;;;;;;2211859;66;2413;-18
2024/03/30 12:04:49;;;;;;;;;;;;;;;;;;2210000;59;2507;-18
2024/03/30 12:07:20;;;;;;;;;;;;;;;;;;2210356;58;2460;-18
2024/03/30 12:09:50;;;;;;;;;;;;;;;;;;2209019;67;1394;-18
2024/03/30 12:12:21;;;;;;;;;;;;;;;;;;2208542;59;2253;-18
2024/03/30 12:14:58;;;;;;;;;;;;;;;;;;2208825;59;1660;-18
2024/03/30 12:17:29;;;;;;;;;;;;;;;;;;2209292;59;2195;-18
2024/03/30 12:20:00;;;;;;;;;;;;;;;;;;2209208;58;2197;-18
2024/03/30 12:22:30;;;;;;;;;;;;;;;;;;2208306;59;2200;-18
2024/03/30 12:25:00;;;;;;;;;;;;;;;;;;2207146;67;2302;-18
2024/03/30 12:27:31;;;;;;;;;;;;;;;;;;2208915;59;2309;-18
2024/03/30 12:30:02;;;;;;;;;;;;;;;;;;2207763;67;1681;-18
2024/03/30 12:32:33;;;;;;;;;;;;;;;;;;2208310;67;2582;-18
2024/03/30 12:35:03;;;;;;;;;;;;;;;;;;2206952;59;1664;-18
2024/03/30 12:37:33;;;;;;;;;;;;;;;;;;2208857;67;1676;-18
2024/03/30 12:40:04;;;;;;;;;;;;;;;;;;2207644;59;2991;-18
2024/03/30 12:42:34;;;;;;;;;;;;;;;;;;2208612;67;1652;-18
2024/03/30 12:45:05;;;;;;;;;;;;;;;;;;2207528;59;2349;-18
2024/03/30 12:47:35;;;;;;;;;;;;;;;;;;2208956;67;1517;-18
2024/03/30 12:50:05;;;;;;;;;;;;;;;;;;2207249;67;1608;-18
2024/03/30 12:52:36;;;;;;;;;;;;;;;;;;2208916;67;1402;-18
2024/03/30 12:55:07;;;;;;;;;;;;;;;;;;2206296;59;1802;-18
2024/03/30 12:57:38;;;;;;;;;;;;;;;;;;2208697;67;1669;-18
2024/03/30 13:00:15;;;;;;;;;;;;;;;;;;2207635;59;1933;-20
2024/03/30 13:02:57;;;;;;;;;;;;;;;;;;2208792;67;1519;-20
2024/03/30 13:05:28;;;;;;;;;;;;;;;;;;2206411;60;1549;-21
2024/03/30 13:07:59;;;;;;;;;;;;;;;;;;2205543;67;1635;-21
2024/03/30 13:10:30;;;;;;;;;;;;;;;;;;2208095;66;1516;-20
2024/03/30 13:13:01;;;;;;;;;;;;;;;;;;2209383;66;1875;-21
2024/03/30 13:15:31;;;;;;;;;;;;;;;;;;2208133;67;1855;-20
2024/03/30 13:18:08;;;;;;;;;;;;;;;;;;2206534;67;1640;-20
2024/03/30 13:20:39;;;;;;;;;;;;;;;;;;2208460;59;1940;-20
2024/03/30 13:23:09;;;;;;;;;;;;;;;;;;2207120;59;1772;-20
2024/03/30 13:25:40;;;;;;;;;;;;;;;;;;2207983;67;1623;-20
2024/03/30 13:28:10;;;;;;;;;;;;;;;;;;2209591;66;1558;-20
2024/03/30 13:30:41;;;;;;;;;;;;;;;;;;2208877;67;1577;-20
2024/03/30 13:33:12;;;;;;;;;;;;;;;;;;2207816;59;1603;-20
2024/03/30 13:35:42;;;;;;;;;;;;;;;;;;2208381;67;1924;-20
2024/03/30 13:38:13;;;;;;;;;;;;;;;;;;2208375;59;1937;-20
2024/03/30 13:40:43;;;;;;;;;;;;;;;;;;2208815;59;2014;-20
2024/03/30 13:43:14;;;;;;;;;;;;;;;;;;2206177;59;1517;-20
2024/03/30 13:45:45;;;;;;;;;;;;;;;;;;2207857;66;2938;-20
2024/03/30 13:48:15;;;;;;;;;;;;;;;;;;2207445;67;1858;-20
2024/03/30 13:50:45;;;;;;;;;;;;;;;;;;2210874;59;1487;-20
2024/03/30 13:53:16;;;;;;;;;;;;;;;;;;2207622;67;1502;-20
2024/03/30 13:55:46;;;;;;;;;;;;;;;;;;2207465;67;1499;-20
2024/03/30 13:58:19;;;;;;;;;;;;;;;;;;2206560;67;1734;-20
2024/03/30 14:00:49;;;;;;;;;;;;;;;;;;2207778;59;2551;-20
2024/03/30 14:03:20;;;;;;;;;;;;;;;;;;2209220;58;2906;-20
2024/03/30 14:05:51;;;;;;;;;;;;;;;;;;2207577;59;2308;-20
2024/03/30 14:08:22;;;;;;;;;;;;;;;;;;2206630;67;1546;-18
2024/03/30 14:10:52;;;;;;;;;;;;;;;;;;2207991;67;2730;-18
2024/03/30 14:13:22;;;;;;;;;;;;;;;;;;2208549;58;1657;-18
2024/03/30 14:15:52;;;;;;;;;;;;;;;;;;2207981;67;1512;-18
2024/03/30 14:18:23;;;;;;;;;;;;;;;;;;2208855;66;2517;-18
2024/03/30 14:20:53;;;;;;;;;;;;;;;;;;2208039;59;1939;-18
2024/03/30 14:23:23;;;;;;;;;;;;;;;;;;2206551;59;2350;-18
2024/03/30 14:25:54;;;;;;;;;;;;;;;;;;2207624;59;2375;-18
2024/03/30 14:28:24;;;;;;;;;;;;;;;;;;2206079;59;2206;-18
2024/03/30 14:30:54;;;;;;;;;;;;;;;;;;2206521;59;3550;-18
2024/03/30 14:33:24;;;;;;;;;;;;;;;;;;2204754;59;2858;-18
2024/03/30 14:35:55;;;;;;;;;;;;;;;;;;2206615;59;2270;-18
2024/03/30 14:38:25;;;;;;;;;;;;;;;;;;2206987;59;2403;-18
2024/03/30 14:40:56;;;;;;;;;;;;;;;;;;2207461;59;2306;-18
2024/03/30 14:43:26;;;;;;;;;;;;;;;;;;2206880;59;2302;-18
2024/03/30 14:45:57;;;;;;;;;;;;;;;;;;2209461;59;2415;-18
2024/03/30 14:48:27;;;;;;;;;;;;;;;;;;2207659;67;1419;-18
2024/03/30 14:50:58;;;;;;;;;;;;;;;;;;2208220;59;2727;-18
2024/03/30 14:53:28;;;;;;;;;;;;;;;;;;2207919;67;2518;-18
2024/03/30 14:56:00;;;;;;;;;;;;;;;;;;2208405;59;2120;-18
2024/03/30 14:58:30;;;;;;;;;;;;;;;;;;2208440;59;2538;-18
2024/03/30 15:01:01;;;;;;;;;;;;;;;;;;2205418;59;2357;-20
2024/03/30 15:03:37;;;;;;;;;;;;;;;;;;2206511;59;2325;-20
2024/03/30 15:06:08;;;;;;;;;;;;;;;;;;2209143;59;2122;-21
2024/03/30 15:08:38;;;;;;;;;;;;;;;;;;2207356;59;2345;-20
2024/03/30 15:11:13;;;;;;;;;;;;;;;;;;2209962;58;3370;-20
2024/03/30 15:13:44;;;;;;;;;;;;;;;;;;2208910;59;2483;-20
2024/03/30 15:16:14;;;;;;;;;;;;;;;;;;2206357;59;2134;-20
2024/03/30 15:18:44;;;;;;;;;;;;;;;;;;2206739;59;2382;-20
2024/03/30 15:21:16;;;;;;;;;;;;;;;;;;2206536;59;2326;-20
2024/03/30 15:23:48;;;;;;;;;;;;;;;;;;2208205;59;2862;-20
2024/03/30 15:26:18;;;;;;;;;;;;;;;;;;2206634;66;1777;-20
2024/03/30 15:28:48;;;;;;;;;;;;;;;;;;2209400;67;1589;-20
2024/03/30 15:34:08;;;;;;;;;;;;;;;;;;2210062;66;1824;-21
2024/03/30 15:36:38;;;;;;;;;;;;;;;;;;2206346;67;2697;-20
2024/03/30 15:39:08;;;;;;;;;;;;;;;;;;2211141;58;1940;-20
2024/03/30 15:41:39;;;;;;;;;;;;;;;;;;2206832;67;2403;-20
2024/03/30 15:44:09;;;;;;;;;;;;;;;;;;2207909;59;2784;-20
2024/03/30 15:46:39;;;;;;;;;;;;;;;;;;2205789;59;3060;-20
2024/03/30 15:49:09;;;;;;;;;;;;;;;;;;2207154;59;2843;-21
2024/03/30 15:51:40;;;;;;;;;;;;;;;;;;2207475;59;2350;-20
2024/03/30 15:54:10;;;;;;;;;;;;;;;;;;2208962;67;1668;-20
2024/03/30 15:56:40;;;;;;;;;;;;;;;;;;2208030;67;1781;-20
2024/03/30 15:59:11;;;;;;;;;;;;;;;;;;2209036;59;2262;-20
2024/03/30 16:01:41;;;;;;;;;;;;;;;;;;2209821;66;1714;-20
2024/03/30 16:04:11;;;;;;;;;;;;;;;;;;2208746;59;2137;-20
2024/03/30 16:06:41;;;;;;;;;;;;;;;;;;2207808;67;1575;-20
2024/03/30 16:09:12;;;;;;;;;;;;;;;;;;2208601;59;2376;-20
2024/03/30 16:11:42;;;;;;;;;;;;;;;;;;2208194;67;1780;-20
2024/03/30 16:14:12;;;;;;;;;;;;;;;;;;2207655;59;2267;-20
2024/03/30 16:16:43;;;;;;;;;;;;;;;;;;2207123;66;1541;-20
2024/03/30 16:19:13;;;;;;;;;;;;;;;;;;2207089;59;2471;-21
2024/03/30 16:21:47;;;;;;;;;;;;;;;;;;2208444;67;1651;-20
2024/03/30 16:24:17;;;;;;;;;;;;;;;;;;2206469;59;2156;-20
2024/03/30 16:26:50;;;;;;;;;;;;;;;;;;2207747;59;2252;-20
2024/03/30 16:29:21;;;;;;;;;;;;;;;;;;2209265;66;1566;-20
2024/03/30 16:31:52;;;;;;;;;;;;;;;;;;2207963;59;2348;-20
2024/03/30 16:34:22;;;;;;;;;;;;;;;;;;2207101;59;2272;-20
2024/03/30 16:36:52;;;;;;;;;;;;;;;;;;2208090;59;2665;-20
2024/03/30 16:39:23;;;;;;;;;;;;;;;;;;2207791;59;2836;-20
2024/03/30 16:41:53;;;;;;;;;;;;;;;;;;2209075;59;2304;-20
2024/03/30 16:44:27;;;;;;;;;;;;;;;;;;2207274;67;1853;-20
2024/03/30 16:47:00;;;;;;;;;;;;;;;;;;2208602;59;2194;-20
2024/03/30 16:49:31;;;;;;;;;;;;;;;;;;2207065;67;1594;-20
2024/03/30 16:52:01;;;;;;;;;;;;;;;;;;2209200;59;2432;-20
2024/03/30 16:54:31;;;;;;;;;;;;;;;;;;2207291;67;1487;-20
2024/03/30 16:57:02;;;;;;;;;;;;;;;;;;2212460;66;1775;-20
2024/03/30 16:59:32;;;;;;;;;;;;;;;;;;2207624;59;2624;-20
2024/03/30 17:02:05;;;;;;;;;;;;;;;;;;2209403;59;1706;-20
2024/03/30 17:04:38;;;;;;;;;;;;;;;;;;2207633;67;2408;-20
2024/03/30 17:07:08;;;;;;;;;;;;;;;;;;2209595;67;1881;-21
2024/03/30 17:09:39;;;;;;;;;;;;;;;;;;2206797;59;2761;-20
2024/03/30 17:12:09;;;;;;;;;;;;;;;;;;2209193;67;1392;-20
2024/03/30 17:14:39;;;;;;;;;;;;;;;;;;2208340;59;2277;-20
2024/03/30 17:17:10;;;;;;;;;;;;;;;;;;2208114;66;1664;-20
2024/03/30 17:19:41;;;;;;;;;;;;;;;;;;2208136;59;2539;-20
2024/03/30 17:22:11;;;;;;;;;;;;;;;;;;2211830;59;1379;-20
2024/03/30 17:24:41;;;;;;;;;;;;;;;;;;2207465;59;2316;-20
2024/03/30 17:27:12;;;;;;;;;;;;;;;;;;2209769;67;1989;-20
2024/03/30 17:29:42;;;;;;;;;;;;;;;;;;2208057;67;1758;-20
2024/03/30 17:32:13;;;;;;;;;;;;;;;;;;2209122;67;2870;-20
2024/03/30 17:34:43;;;;;;;;;;;;;;;;;;2207652;59;1737;-20
2024/03/30 17:37:13;;;;;;;;;;;;;;;;;;2210828;59;2180;-20